createdAt,value
2023-05-08T00:04:56.237Z,0.50
2023-05-08T00:09:58.576Z,0.55
2023-05-08T00:15:00.926Z,0.90
2023-05-08T00:20:03.732Z,0.50
2023-05-08T00:25:06.279Z,0.60
2023-05-08T00:30:08.862Z,0.60
2023-05-08T00:35:10.694Z,0.50
2023-05-08T00:40:12.995Z,0.93
2023-05-08T00:45:15.143Z,0.40
2023-05-08T00:50:17.705Z,0.57
2023-05-08T00:55:19.937Z,0.70
2023-05-08T01:00:23.477Z,0.57
2023-05-08T01:05:25.604Z,0.52
2023-05-08T01:10:38.704Z,0.60
2023-05-08T01:15:51.477Z,0.70
2023-05-08T01:21:09.121Z,0.70
2023-05-08T01:26:42.558Z,0.63
2023-05-08T01:32:06.371Z,0.90
2023-05-08T01:37:13.392Z,0.55
2023-05-08T01:42:49.898Z,0.50
2023-05-08T01:48:08.627Z,0.45
2023-05-08T01:53:20.537Z,0.73
2023-05-08T01:58:24.784Z,0.70
2023-05-08T02:03:28.101Z,0.55
2023-05-08T02:08:31.373Z,0.57
2023-05-08T02:13:35.292Z,0.52
2023-05-08T02:18:41.253Z,0.70
2023-05-08T02:23:45.677Z,0.47
2023-05-08T02:28:50.067Z,0.55
2023-05-08T02:33:54.145Z,0.57
2023-05-08T02:38:59.195Z,0.60
2023-05-08T02:44:01.539Z,0.50
2023-05-08T02:49:20.907Z,0.50
2023-05-08T02:54:31.963Z,0.65
2023-05-08T02:59:44.866Z,0.50
2023-05-08T03:05:00.032Z,0.57
2023-05-08T03:10:10.995Z,0.75
2023-05-08T03:15:26.755Z,0.73
2023-05-08T03:20:34.234Z,0.57
2023-05-08T03:25:39.193Z,0.60
2023-05-08T03:30:42.159Z,0.35
2023-05-08T03:35:45.520Z,0.52
2023-05-08T03:40:47.886Z,0.47
2023-05-08T03:45:51.388Z,0.50
2023-05-08T03:50:54.061Z,0.55
2023-05-08T03:55:58.113Z,0.63
2023-05-08T04:01:13.073Z,0.60
2023-05-08T04:06:30.710Z,0.65
2023-05-08T04:11:38.021Z,0.57
2023-05-08T04:16:46.207Z,0.68
2023-05-08T04:21:50.581Z,0.50
2023-05-08T04:26:53.257Z,0.60
2023-05-08T04:31:57.529Z,0.50
2023-05-08T04:36:59.698Z,0.60
2023-05-08T04:42:03.984Z,0.50
2023-05-08T04:47:06.191Z,0.80
2023-05-08T04:52:08.250Z,0.65
2023-05-08T04:57:10.151Z,0.50
2023-05-08T05:02:12.028Z,0.40
2023-05-08T05:07:14.119Z,0.82
2023-05-08T05:12:16.136Z,0.50
2023-05-08T05:17:18.119Z,0.57
2023-05-08T05:22:20.001Z,0.70
2023-05-08T05:27:22.078Z,0.82
2023-05-08T05:32:24.033Z,0.50
2023-05-08T05:37:25.994Z,0.68
2023-05-08T05:42:28.040Z,0.50
2023-05-08T05:47:30.306Z,0.63
2023-05-08T05:52:33.585Z,0.65
2023-05-08T05:57:35.567Z,0.60
2023-05-08T06:02:37.853Z,0.60
2023-05-08T06:07:40.208Z,0.43
2023-05-08T06:12:42.550Z,0.77
2023-05-08T06:17:44.516Z,0.95
2023-05-08T06:22:46.747Z,2.58
2023-05-08T06:27:48.953Z,1.67
2023-05-08T06:32:50.987Z,2.95
2023-05-08T06:37:52.982Z,1.70
2023-05-08T06:42:55.293Z,2.10
2023-05-08T06:47:57.303Z,2.35
2023-05-08T06:52:59.395Z,1.42
2023-05-08T06:58:01.567Z,1.98
2023-05-08T07:03:03.619Z,2.55
2023-05-08T07:08:05.668Z,2.20
2023-05-08T07:13:07.601Z,1.95
2023-05-08T07:18:09.819Z,2.17
2023-05-08T07:23:11.959Z,2.05
2023-05-08T07:28:14.188Z,2.30
2023-05-08T07:33:16.354Z,1.95
2023-05-08T07:38:18.699Z,1.55
2023-05-08T07:43:20.578Z,5.32
2023-05-08T07:48:22.404Z,4.88
2023-05-08T07:53:24.327Z,5.00
2023-05-08T07:58:26.507Z,5.95
2023-05-08T08:03:28.484Z,5.40
2023-05-08T08:08:30.622Z,5.10
2023-05-08T08:13:33.332Z,7.10
2023-05-08T08:18:38.773Z,6.05
2023-05-08T08:23:40.735Z,10.50
2023-05-08T08:28:42.597Z,14.10
2023-05-08T08:33:45.198Z,15.75
2023-05-08T08:38:47.504Z,15.38
2023-05-08T08:43:49.484Z,13.43
2023-05-08T08:48:53.501Z,12.88
2023-05-08T08:54:08.206Z,14.18
2023-05-08T08:59:12.649Z,14.48
2023-05-08T09:04:14.799Z,19.23
2023-05-08T09:09:16.803Z,23.65
2023-05-08T09:14:19.396Z,24.73
2023-05-08T09:19:24.949Z,22.35
2023-05-08T09:25:08.065Z,24.42
2023-05-08T09:30:13.042Z,28.95
2023-05-08T09:35:15.366Z,27.75
2023-05-08T09:40:22.573Z,28.85
2023-05-08T09:45:28.809Z,26.92
2023-05-08T09:50:31.913Z,26.77
2023-05-08T09:55:47.920Z,27.55
2023-05-08T10:00:49.942Z,26.67
2023-05-08T10:05:51.909Z,24.08
2023-05-08T10:10:54.068Z,25.10
2023-05-08T10:15:57.245Z,22.98
2023-05-08T10:21:05.790Z,22.60
2023-05-08T10:26:12.847Z,21.65
2023-05-08T10:31:18.702Z,22.88
2023-05-08T10:36:21.655Z,20.80
2023-05-08T10:41:27.233Z,21.05
2023-05-08T10:46:49.343Z,22.30
2023-05-08T10:52:08.104Z,22.17
2023-05-08T10:57:11.334Z,18.75
2023-05-08T11:02:13.582Z,19.23
2023-05-08T11:07:15.727Z,21.50
2023-05-08T11:12:28.272Z,21.33
2023-05-08T11:17:30.699Z,20.63
2023-05-08T11:22:37.312Z,20.85
2023-05-08T11:27:51.266Z,19.13
2023-05-08T11:33:09.751Z,19.05
2023-05-08T11:38:20.231Z,20.60
2023-05-08T11:43:26.575Z,15.68
2023-05-08T11:48:28.705Z,20.30
2023-05-08T11:53:31.765Z,18.00
2023-05-08T11:58:33.763Z,18.00
2023-05-08T12:03:36.170Z,18.58
2023-05-08T12:08:39.844Z,17.77
2023-05-08T12:13:41.996Z,19.35
2023-05-08T12:18:44.432Z,18.75
2023-05-08T12:23:46.850Z,18.33
2023-05-08T12:28:55.944Z,15.27
2023-05-08T12:33:58.701Z,15.77
2023-05-08T12:39:18.406Z,15.65
2023-05-08T12:44:25.055Z,15.18
2023-05-08T12:49:31.050Z,13.85
2023-05-08T12:54:34.573Z,15.73
2023-05-08T12:59:36.681Z,14.95
2023-05-08T13:04:39.110Z,14.93
2023-05-08T13:09:56.956Z,14.15
2023-05-08T13:14:58.939Z,12.70
2023-05-08T13:20:01.627Z,12.32
2023-05-08T13:25:04.802Z,13.55
2023-05-08T13:30:07.473Z,12.50
2023-05-08T13:35:09.530Z,12.10
2023-05-08T13:40:12.353Z,11.10
2023-05-08T13:45:15.253Z,10.95
2023-05-08T13:50:19.857Z,12.00
2023-05-08T13:55:23.304Z,10.25
2023-05-08T14:00:27.960Z,10.93
2023-05-08T14:05:30.516Z,11.20
2023-05-08T14:10:32.668Z,11.13
2023-05-08T14:15:37.341Z,10.60
2023-05-08T14:20:39.933Z,9.90
2023-05-08T14:25:41.885Z,9.18
2023-05-08T14:30:43.946Z,10.45
2023-05-08T14:35:48.472Z,10.45
2023-05-08T14:40:51.580Z,10.52
2023-05-08T14:45:54.299Z,10.40
2023-05-08T14:51:01.838Z,10.40
2023-05-08T14:56:04.340Z,9.63
2023-05-08T15:01:07.163Z,9.60
2023-05-08T15:06:09.540Z,11.10
2023-05-08T15:11:11.538Z,8.35
2023-05-08T15:16:13.539Z,8.77
2023-05-08T15:21:15.757Z,7.45
2023-05-08T15:26:17.807Z,8.30
2023-05-08T15:31:20.081Z,8.32
2023-05-08T15:36:22.094Z,9.15
2023-05-08T15:41:24.263Z,7.10
2023-05-08T15:46:26.429Z,7.03
2023-05-08T15:51:29.262Z,7.28
2023-05-08T15:56:31.175Z,7.10
2023-05-08T16:01:33.466Z,7.30
2023-05-08T16:06:35.583Z,6.47
2023-05-08T16:11:37.823Z,7.10
2023-05-08T16:16:40.476Z,5.72
2023-05-08T16:21:42.520Z,6.47
2023-05-08T16:26:44.579Z,5.57
2023-05-08T16:31:46.457Z,6.07
2023-05-08T16:36:48.499Z,5.88
2023-05-08T16:41:50.562Z,5.57
2023-05-08T16:46:52.784Z,5.30
2023-05-08T16:51:55.424Z,5.50
2023-05-08T16:56:57.569Z,5.22
2023-05-08T17:01:59.785Z,5.50
2023-05-08T17:07:01.796Z,5.07
2023-05-08T17:12:03.817Z,4.50
2023-05-08T17:17:06.538Z,4.70
2023-05-08T17:22:08.660Z,5.03
2023-05-08T17:27:11.050Z,4.85
2023-05-08T17:32:13.440Z,3.45
2023-05-08T17:37:15.641Z,4.70
2023-05-08T17:42:17.752Z,4.35
2023-05-08T17:47:19.900Z,4.10
2023-05-08T17:52:22.101Z,4.43
2023-05-08T17:57:24.278Z,3.50
2023-05-08T18:02:26.438Z,4.13
2023-05-08T18:07:28.711Z,3.88
2023-05-08T18:12:32.300Z,4.07
2023-05-08T18:17:34.488Z,3.95
2023-05-08T18:22:36.856Z,3.58
2023-05-08T18:27:40.126Z,4.40
2023-05-08T18:32:42.410Z,4.50
2023-05-08T18:37:44.554Z,4.72
2023-05-08T18:42:46.851Z,3.75
2023-05-08T18:47:49.407Z,4.05
2023-05-08T18:52:51.704Z,4.47
2023-05-08T18:57:54.520Z,4.00
2023-05-08T19:02:58.470Z,4.78
2023-05-08T19:08:00.709Z,4.30
2023-05-08T19:13:02.920Z,4.13
2023-05-08T19:18:05.494Z,3.70
2023-05-08T19:23:07.849Z,3.92
2023-05-08T19:28:10.145Z,3.88
2023-05-08T19:33:12.296Z,3.25
2023-05-08T19:38:15.194Z,3.13
2023-05-08T19:43:17.620Z,3.35
2023-05-08T19:48:20.469Z,3.05
2023-05-08T19:53:23.580Z,3.85
2023-05-08T19:58:25.537Z,4.00
2023-05-08T20:03:27.849Z,3.58
2023-05-08T20:08:30.086Z,4.20
2023-05-08T20:13:32.202Z,3.10
2023-05-08T20:18:35.764Z,3.60
2023-05-08T20:23:39.956Z,3.50
2023-05-08T20:28:42.009Z,3.58
2023-05-08T20:33:44.112Z,2.97
2023-05-08T20:38:46.066Z,3.55
2023-05-08T20:43:48.338Z,3.10
2023-05-08T20:48:51.562Z,3.50
2023-05-08T20:53:53.671Z,2.83
2023-05-08T20:58:55.757Z,2.72
2023-05-08T21:03:57.812Z,3.15
2023-05-08T21:08:59.791Z,3.85
2023-05-08T21:14:01.806Z,2.95
2023-05-08T21:19:03.738Z,2.95
2023-05-08T21:24:05.897Z,3.10
2023-05-08T21:29:07.911Z,3.00
2023-05-08T21:34:09.944Z,3.08
2023-05-08T21:39:12.104Z,2.67
2023-05-08T21:44:15.825Z,3.10
2023-05-08T21:49:18.004Z,2.70
2023-05-08T21:54:23.508Z,3.33
2023-05-08T21:59:25.487Z,2.45
2023-05-08T22:04:27.670Z,2.85
2023-05-08T22:09:29.662Z,2.42
2023-05-08T22:14:31.730Z,2.75
2023-05-08T22:19:33.604Z,2.13
2023-05-08T22:24:35.827Z,2.25
2023-05-08T22:29:37.973Z,2.42
2023-05-08T22:34:40.062Z,2.47
2023-05-08T22:39:41.962Z,1.85
2023-05-08T22:44:44.646Z,2.17
2023-05-08T22:49:48.489Z,2.13
2023-05-08T22:54:50.707Z,2.03
2023-05-08T22:59:52.658Z,1.92
2023-05-08T23:04:56.199Z,1.98
2023-05-08T23:09:58.277Z,2.47
2023-05-08T23:15:00.692Z,1.92
2023-05-08T23:20:02.781Z,1.67
2023-05-08T23:25:05.306Z,1.88
2023-05-08T23:30:07.925Z,1.77
2023-05-08T23:35:10.232Z,1.70
2023-05-08T23:40:12.597Z,2.05
2023-05-08T23:45:14.825Z,1.95
2023-05-08T23:50:17.103Z,2.10
2023-05-08T23:55:19.129Z,1.77
